Time;durP1;ratioP1;P1;durP2;ratioP2;P2;SDS_P1;SDS_P2;PMS_P1;PMS_P2;Temp;Humidity;BMP_temperature;BMP_pressure;BME280_temperature;BME280_humidity;BME280_pressure;Samples;Min_cycle;Max_cycle;Signal;HPM_P1;HPM_P2
2023/08/11 04:13:46;;;;;;;7.82;5.40;;;;;;;11.69;100.00;100841.31;5567671;32;288477;-85
2023/08/11 04:16:54;;;;;;;6.57;5.47;;;;;;;11.65;100.00;100845.03;5557042;32;34002;-86
2023/08/11 04:19:57;;;;;;;7.00;5.03;;;;;;;11.71;100.00;100846.53;5556602;32;33821;-86
2023/08/11 04:23:01;;;;;;;7.93;5.25;;;;;;;11.76;100.00;100849.00;5557054;32;33353;-84
2023/08/11 04:26:05;;;;;;;7.25;5.07;;;;;;;11.79;100.00;100856.81;5556728;32;34918;-86
2023/08/11 04:29:08;;;;;;;7.43;5.00;;;;;;;11.85;100.00;100861.81;5557009;32;34491;-86
2023/08/11 04:32:11;;;;;;;6.93;5.07;;;;;;;11.88;100.00;100866.16;5556449;32;33768;-83
2023/08/11 04:35:17;;;;;;;7.18;5.12;;;;;;;11.97;100.00;100863.06;5556462;32;34060;-83
2023/08/11 04:38:20;;;;;;;7.62;5.15;;;;;;;12.02;100.00;100858.34;5556533;32;34034;-83
2023/08/11 04:41:23;;;;;;;6.35;4.70;;;;;;;12.09;100.00;100864.28;5556084;32;33678;-84
2023/08/11 04:44:26;;;;;;;6.22;4.97;;;;;;;12.20;100.00;100861.09;5555806;32;33984;-83
2023/08/11 04:47:28;;;;;;;8.23;5.30;;;;;;;12.26;100.00;100872.31;5556317;32;34200;-83
2023/08/11 04:50:32;;;;;;;7.97;4.97;;;;;;;12.38;100.00;100876.16;5556049;32;33581;-83
2023/08/11 04:53:35;;;;;;;5.45;4.90;;;;;;;12.53;100.00;100881.66;5556028;32;34696;-86
2023/08/11 04:56:37;;;;;;;7.65;5.20;;;;;;;12.69;100.00;100886.22;5575481;32;34131;-84
2023/08/11 04:59:41;;;;;;;6.30;4.85;;;;;;;12.88;100.00;100889.66;5575428;32;34439;-85
2023/08/11 05:02:44;;;;;;;5.70;4.82;;;;;;;13.03;100.00;100895.16;5575705;32;33989;-84
2023/08/11 05:05:48;;;;;;;4.95;4.37;;;;;;;13.13;100.00;100898.19;5575777;32;35559;-84
2023/08/11 05:08:50;;;;;;;4.97;4.47;;;;;;;13.20;100.00;100897.78;5575681;32;34929;-84
2023/08/11 05:11:53;;;;;;;5.30;4.80;;;;;;;13.26;100.00;100901.94;5575588;32;34061;-85
2023/08/11 05:14:56;;;;;;;6.57;4.80;;;;;;;13.34;100.00;100901.53;5575188;32;34095;-85
2023/08/11 05:17:59;;;;;;;6.87;4.60;;;;;;;13.48;100.00;100903.50;5575784;32;34266;-85
2023/08/11 05:21:03;;;;;;;6.85;4.72;;;;;;;13.61;100.00;100906.34;5575575;32;33704;-84
2023/08/11 05:24:06;;;;;;;5.20;4.70;;;;;;;13.81;100.00;100907.06;5566998;32;35182;-85
2023/08/11 05:27:09;;;;;;;5.75;4.50;;;;;;;14.07;100.00;100902.09;5561919;32;34172;-85
2023/08/11 05:30:15;;;;;;;6.97;4.95;;;;;;;14.22;100.00;100911.91;5563733;32;36430;-85
2023/08/11 05:33:17;;;;;;;6.28;4.18;;;;;;;14.58;100.00;100906.34;5562907;32;33568;-85
2023/08/11 05:36:20;;;;;;;4.97;4.15;;;;;;;14.66;100.00;100918.31;5562510;32;34072;-85
2023/08/11 05:39:23;;;;;;;4.87;4.37;;;;;;;14.79;100.00;100913.12;5562963;32;34135;-85
2023/08/11 05:42:26;;;;;;;6.20;4.85;;;;;;;14.97;100.00;100918.31;5562267;32;34079;-85
2023/08/11 05:45:28;;;;;;;4.87;4.35;;;;;;;15.45;100.00;100919.94;5562685;32;34032;-85
2023/08/11 05:48:31;;;;;;;6.25;4.47;;;;;;;15.64;100.00;100914.28;5562414;32;33841;-86
2023/08/11 05:51:34;;;;;;;5.57;4.25;;;;;;;15.63;100.00;100918.78;5561938;32;35175;-84
2023/08/11 05:54:37;;;;;;;7.70;4.50;;;;;;;15.55;100.00;100920.22;5562034;32;35338;-84
2023/08/11 05:57:39;;;;;;;6.75;4.40;;;;;;;15.81;100.00;100915.91;5562284;32;34311;-85
2023/08/11 06:00:42;;;;;;;4.55;4.10;;;;;;;15.99;100.00;100916.56;5562638;32;35089;-85
2023/08/11 06:03:45;;;;;;;5.15;4.03;;;;;;;16.29;100.00;100915.53;5562619;32;34762;-85
2023/08/11 06:06:48;;;;;;;4.65;3.80;;;;;;;16.84;100.00;100915.50;5562392;32;34098;-85
2023/08/11 06:09:50;;;;;;;5.53;3.58;;;;;;;17.49;100.00;100914.72;5563961;32;34186;-84
2023/08/11 06:12:55;;;;;;;5.35;3.40;;;;;;;18.28;100.00;100927.03;5565798;32;34987;-84
2023/08/11 06:15:58;;;;;;;4.15;3.55;;;;;;;19.72;100.00;100933.22;5565596;32;34719;-84
2023/08/11 06:19:00;;;;;;;3.65;3.10;;;;;;;20.80;92.91;100931.63;5562911;32;35209;-86
2023/08/11 06:22:03;;;;;;;7.43;3.25;;;;;;;22.12;82.44;100941.03;5562425;32;34436;-87
2023/08/11 06:25:06;;;;;;;5.03;2.95;;;;;;;22.82;69.86;100937.44;5559825;32;32961;-88
2023/08/11 06:28:09;;;;;;;5.78;2.72;;;;;;;24.49;60.95;100938.66;5562306;32;33811;-84
2023/08/11 06:31:12;;;;;;;3.58;2.85;;;;;;;25.39;55.65;100944.16;5562224;32;35246;-84
2023/08/11 06:34:17;;;;;;;3.87;3.10;;;;;;;24.79;57.04;100943.84;5562114;32;35315;-84
2023/08/11 06:37:21;;;;;;;6.50;3.62;;;;;;;23.65;60.05;100946.84;5559481;32;35135;-84
2023/08/11 06:40:24;;;;;;;3.70;3.00;;;;;;;22.66;63.75;100946.13;5557541;32;34088;-84
2023/08/11 06:43:27;;;;;;;7.78;3.20;;;;;;;21.70;65.97;100946.56;5556509;32;34001;-84
2023/08/11 06:46:29;;;;;;;5.53;3.37;;;;;;;21.59;68.28;100948.34;5556985;32;33879;-85
2023/08/11 06:49:35;;;;;;;4.80;2.80;;;;;;;21.19;69.59;100947.28;5557298;32;33748;-84
2023/08/11 06:52:38;;;;;;;3.85;3.03;;;;;;;21.37;69.62;100955.63;5555675;32;33311;-84
2023/08/11 06:55:40;;;;;;;5.82;3.12;;;;;;;21.36;69.30;100955.75;5555601;32;34752;-84
2023/08/11 06:58:43;;;;;;;4.78;3.20;;;;;;;21.23;68.89;100950.56;5556810;32;34305;-84
2023/08/11 07:01:46;;;;;;;3.92;2.90;;;;;;;21.19;71.18;100951.81;5559489;32;33994;-85
2023/08/11 07:04:49;;;;;;;4.72;3.12;;;;;;;21.05;70.79;100955.69;5557178;32;34144;-84
2023/08/11 07:07:51;;;;;;;3.78;2.80;;;;;;;22.12;67.88;100962.63;5557178;32;34022;-84
2023/08/11 07:10:54;;;;;;;5.87;3.00;;;;;;;23.44;61.55;100959.72;5556650;32;34135;-84
2023/08/11 07:13:57;;;;;;;4.22;2.83;;;;;;;23.49;61.84;100966.38;5556738;32;33798;-84
2023/08/11 07:17:00;;;;;;;5.90;3.08;;;;;;;22.99;64.75;100962.06;5557917;32;34747;-84
2023/08/11 07:20:03;;;;;;;3.50;3.00;;;;;;;22.72;66.21;100961.78;5557202;32;33774;-84
2023/08/11 07:23:10;;;;;;;4.15;3.15;;;;;;;22.49;67.71;100953.06;5555128;32;34937;-84
2023/08/11 07:26:12;;;;;;;4.25;2.97;;;;;;;22.24;68.35;100968.81;5555580;32;33853;-85
2023/08/11 07:29:15;;;;;;;3.95;2.87;;;;;;;22.55;67.74;100959.75;5555408;32;33501;-84
2023/08/11 07:32:18;;;;;;;3.33;2.92;;;;;;;22.49;68.93;100964.72;5556104;32;34026;-84
2023/08/11 07:35:21;;;;;;;4.03;3.03;;;;;;;22.83;65.96;100963.47;5556531;32;34110;-84
2023/08/11 07:38:24;;;;;;;4.93;3.17;;;;;;;22.86;66.13;100965.03;5556650;32;34162;-84
2023/08/11 07:41:26;;;;;;;5.22;3.30;;;;;;;22.61;66.98;100967.31;5555672;32;34073;-84
2023/08/11 07:44:33;;;;;;;4.85;3.10;;;;;;;22.58;66.03;100963.03;5556378;32;34926;-84
2023/08/11 07:47:36;;;;;;;4.30;3.25;;;;;;;22.39;66.76;100963.84;5555529;32;34085;-84
2023/08/11 07:50:39;;;;;;;3.58;3.28;;;;;;;22.32;66.52;100965.38;5556603;32;33924;-84
2023/08/11 07:53:44;;;;;;;6.47;3.25;;;;;;;22.63;66.57;100965.34;5555899;32;33795;-84
2023/08/11 07:56:46;;;;;;;3.45;3.15;;;;;;;22.84;66.51;100969.75;5556474;32;33992;-84
2023/08/11 07:59:49;;;;;;;4.40;3.28;;;;;;;22.50;67.49;100968.28;5556877;32;34143;-84
2023/08/11 08:02:53;;;;;;;4.75;3.15;;;;;;;22.75;66.94;100968.75;5555751;32;35139;-84
2023/08/11 08:05:56;;;;;;;5.72;3.33;;;;;;;23.25;65.24;100966.84;5555818;32;33489;-84
2023/08/11 08:08:59;;;;;;;5.50;3.30;;;;;;;23.26;62.59;100972.13;5553903;32;33749;-84
2023/08/11 08:12:02;;;;;;;5.60;3.15;;;;;;;23.63;64.51;100969.66;5552783;32;33473;-84
2023/08/11 08:15:06;;;;;;;6.93;2.87;;;;;;;24.43;60.51;100971.00;5553322;32;34080;-84
2023/08/11 08:18:09;;;;;;;5.18;2.67;;;;;;;25.06;58.43;100973.78;5552997;32;33881;-84
2023/08/11 08:21:12;;;;;;;4.57;3.30;;;;;;;25.12;57.91;100976.72;5552926;32;34082;-84
2023/08/11 08:24:15;;;;;;;5.70;3.53;;;;;;;25.54;56.56;100975.16;5539244;32;33590;-84
2023/08/11 08:27:23;;;;;;;3.30;2.97;;;;;;;25.73;55.28;100978.66;5552561;32;33942;-84
2023/08/11 08:30:26;;;;;;;3.30;3.00;;;;;;;25.94;54.71;100977.41;5553795;32;33765;-84
2023/08/11 08:33:29;;;;;;;3.45;3.08;;;;;;;25.93;55.26;100976.56;5553914;32;34429;-88
2023/08/11 08:36:32;;;;;;;4.70;3.03;;;;;;;25.68;57.04;100979.16;5551969;32;34418;-88
2023/08/11 08:39:34;;;;;;;4.45;3.03;;;;;;;26.53;54.25;100983.88;5551959;32;33523;-88
2023/08/11 08:42:38;;;;;;;4.35;3.12;;;;;;;26.96;53.06;100971.06;5551677;32;33955;-88
2023/08/11 08:45:44;;;;;;;5.18;3.00;;;;;;;27.42;51.21;100972.37;5551706;32;34206;-84
2023/08/11 08:49:14;;;;;;;6.12;3.03;;;;;;;27.86;50.04;100973.81;5551473;32;34010;-84
2023/08/11 08:52:17;;;;;;;;;;;;;;;28.01;49.08;100983.97;5551445;32;34643;-84
2023/08/11 08:55:20;;;;;;;7.50;3.00;;;;;;;27.87;48.67;100977.38;5552949;32;34308;-84
2023/08/11 08:58:22;;;;;;;5.28;2.80;;;;;;;28.10;46.34;100982.87;5555912;32;34581;-85
2023/08/11 09:01:26;;;;;;;4.78;3.30;;;;;;;28.56;44.96;100989.50;5558856;32;33983;-85
2023/08/11 09:04:30;;;;;;;3.45;2.80;;;;;;;28.23;46.07;100982.34;5559193;32;34823;-85
2023/08/11 09:07:33;;;;;;;3.20;2.97;;;;;;;27.79;45.70;100990.00;5559128;32;34055;-85
2023/08/11 09:10:36;;;;;;;3.05;2.62;;;;;;;27.58;45.97;100987.84;5558016;32;34893;-85
2023/08/11 09:13:39;;;;;;;2.80;2.60;;;;;;;27.77;46.93;100983.03;5555998;32;34494;-86
2023/08/11 09:16:42;;;;;;;3.87;2.90;;;;;;;28.16;44.18;100984.88;5554591;32;33985;-87
2023/08/11 09:19:50;;;;;;;14.40;3.72;;;;;;;29.15;43.76;100982.56;5551161;32;34554;-87
2023/08/11 09:22:53;;;;;;;5.87;3.20;;;;;;;29.53;43.21;100990.75;5550928;32;34068;-87
2023/08/11 09:25:56;;;;;;;5.22;2.90;;;;;;;29.58;40.73;100985.56;5550616;32;33966;-87
2023/08/11 09:28:59;;;;;;;4.20;3.08;;;;;;;30.19;39.76;100996.50;5551228;32;33802;-87
2023/08/11 09:32:03;;;;;;;6.43;3.00;;;;;;;30.10;40.52;100984.81;5550752;32;33387;-87
2023/08/11 09:35:08;;;;;;;5.20;3.08;;;;;;;30.01;41.76;100986.75;5550827;32;33698;-87
2023/08/11 09:38:12;;;;;;;3.95;2.70;;;;;;;29.95;41.54;100985.66;5555962;32;34216;-89
2023/08/11 13:05:49;;;;;;;3.03;2.50;;;;;;;26.57;39.74;100907.25;744122;30;20360;-88
2023/08/11 13:08:53;;;;;;;4.00;2.58;;;;;;;26.71;39.30;100908.44;5511712;32;32983;-89
2023/08/11 13:11:55;;;;;;;3.47;2.28;;;;;;;26.38;40.90;100908.41;5512312;32;34376;-89
2023/08/11 13:14:58;;;;;;;9.20;2.40;;;;;;;26.58;40.64;100906.22;5512396;32;33513;-89
2023/08/11 13:18:01;;;;;;;2.75;2.20;;;;;;;26.59;39.12;100904.38;5512528;32;33988;-89
2023/08/11 13:21:04;;;;;;;3.97;2.92;;;;;;;26.54;38.59;100909.44;5512287;32;33523;-88
2023/08/11 13:24:06;;;;;;;3.55;3.10;;;;;;;25.87;39.04;100917.44;5511614;32;33843;-88
2023/08/11 13:27:11;;;;;;;2.90;2.60;;;;;;;26.18;37.82;100916.84;5511708;32;33748;-88
2023/08/11 13:30:14;;;;;;;3.12;2.65;;;;;;;26.21;36.66;100919.22;5512474;32;33779;-88
2023/08/11 13:33:17;;;;;;;6.03;2.80;;;;;;;26.51;37.28;100905.19;5511742;32;34123;-88
2023/08/11 13:36:20;;;;;;;2.55;2.35;;;;;;;26.48;38.70;100909.09;5512195;32;34403;-88
2023/08/11 13:39:23;;;;;;;2.80;2.40;;;;;;;26.83;36.03;100910.78;5512357;32;34671;-88
